createdAt,value
2022-11-12T00:00:41.173Z,15.21
2022-11-12T00:03:08.484Z,15.22
2022-11-12T00:05:35.351Z,15.21
2022-11-12T00:08:02.567Z,15.21
2022-11-12T00:10:29.571Z,15.21
2022-11-12T00:12:56.308Z,15.23
2022-11-12T00:15:23.346Z,15.24
2022-11-12T00:17:50.077Z,15.23
2022-11-12T00:20:16.998Z,15.19
2022-11-12T00:22:44.062Z,15.14
2022-11-12T00:25:10.886Z,15.10
2022-11-12T00:27:37.776Z,15.10
2022-11-12T00:30:05.185Z,15.09
2022-11-12T00:32:31.997Z,15.07
2022-11-12T00:35:02.481Z,15.08
2022-11-12T00:37:29.765Z,15.08
2022-11-12T00:39:56.637Z,15.06
2022-11-12T00:42:23.499Z,15.05
2022-11-12T00:44:50.307Z,15.02
2022-11-12T00:47:17.117Z,15.00
2022-11-12T00:49:43.847Z,14.99
2022-11-12T00:52:10.737Z,14.97
2022-11-12T00:54:37.587Z,14.99
2022-11-12T00:57:04.340Z,15.02
2022-11-12T00:59:32.631Z,14.99
2022-11-12T01:01:59.527Z,14.97
2022-11-12T01:04:26.239Z,14.99
2022-11-12T01:06:53.079Z,14.99
2022-11-12T01:09:19.989Z,14.99
2022-11-12T01:11:46.887Z,14.99
2022-11-12T01:14:13.759Z,14.97
2022-11-12T01:16:40.708Z,14.95
2022-11-12T01:19:08.774Z,14.94
2022-11-12T01:21:38.367Z,14.94
2022-11-12T01:24:06.670Z,14.94
2022-11-12T01:26:33.428Z,14.96
2022-11-12T01:29:00.211Z,14.96
2022-11-12T01:31:28.947Z,14.97
2022-11-12T01:33:57.028Z,14.98
2022-11-12T01:36:24.448Z,14.98
2022-11-12T01:38:52.335Z,14.97
2022-11-12T01:41:20.807Z,15.00
2022-11-12T01:43:47.677Z,14.99
2022-11-12T01:46:20.469Z,14.98
2022-11-12T01:48:53.247Z,14.98
2022-11-12T01:51:21.748Z,14.96
2022-11-12T01:53:51.197Z,14.95
2022-11-12T01:56:18.737Z,14.93
2022-11-12T01:58:46.849Z,14.92
2022-11-12T02:01:13.780Z,14.91
2022-11-12T02:03:40.546Z,14.90
2022-11-12T02:06:09.659Z,14.89
2022-11-12T02:08:37.930Z,14.87
2022-11-12T02:11:15.490Z,14.87
2022-11-12T02:13:51.696Z,14.89
2022-11-12T02:16:18.707Z,14.88
2022-11-12T02:18:45.615Z,14.89
2022-11-12T02:21:12.327Z,14.88
2022-11-12T02:23:39.175Z,14.87
2022-11-12T02:26:05.896Z,14.88
2022-11-12T02:28:33.206Z,14.87
2022-11-12T02:30:59.947Z,14.89
2022-11-12T02:33:26.833Z,14.89
2022-11-12T02:35:53.770Z,14.89
2022-11-12T02:38:20.798Z,14.88
2022-11-12T02:40:47.606Z,14.88
2022-11-12T02:43:14.378Z,14.89
2022-11-12T02:45:41.357Z,14.86
2022-11-12T02:48:08.071Z,14.83
2022-11-12T02:50:34.809Z,14.80
2022-11-12T02:53:01.614Z,14.79
2022-11-12T02:55:28.320Z,14.80
2022-11-12T02:57:57.805Z,14.82
2022-11-12T03:00:24.616Z,14.84
2022-11-12T03:02:59.697Z,14.85
2022-11-12T03:05:27.972Z,14.86
2022-11-12T03:07:56.745Z,14.87
2022-11-12T03:10:23.503Z,14.86
2022-11-12T03:12:50.226Z,14.89
2022-11-12T03:15:17.916Z,14.90
2022-11-12T03:17:44.665Z,14.91
2022-11-12T03:20:12.476Z,14.93
2022-11-12T03:22:39.707Z,14.93
2022-11-12T03:25:07.756Z,14.95
2022-11-12T03:27:34.698Z,14.93
2022-11-12T03:30:01.586Z,14.95
2022-11-12T03:32:28.288Z,14.95
2022-11-12T03:34:55.696Z,14.96
2022-11-12T03:37:22.667Z,14.97
2022-11-12T03:39:49.428Z,14.95
2022-11-12T03:42:16.337Z,14.96
2022-11-12T03:44:44.475Z,14.97
2022-11-12T03:47:11.177Z,14.98
2022-11-12T03:49:38.078Z,14.99
2022-11-12T03:52:04.886Z,14.97
2022-11-12T03:54:31.623Z,14.99
2022-11-12T03:56:58.556Z,15.00
2022-11-12T03:59:25.219Z,15.01
2022-11-12T04:01:51.989Z,15.02
2022-11-12T04:04:18.866Z,15.00
2022-11-12T04:06:57.142Z,14.99
2022-11-12T04:09:24.156Z,15.01
2022-11-12T04:11:50.965Z,15.00
2022-11-12T04:14:17.706Z,15.01
2022-11-12T04:16:53.885Z,14.99
2022-11-12T04:19:29.739Z,15.01
2022-11-12T04:21:59.595Z,15.01
2022-11-12T04:24:37.719Z,15.03
2022-11-12T04:27:05.257Z,15.03
2022-11-12T04:29:41.916Z,15.04
2022-11-12T04:32:08.605Z,15.08
2022-11-12T04:34:35.796Z,15.08
2022-11-12T04:37:03.877Z,15.06
2022-11-12T04:39:30.726Z,15.04
2022-11-12T04:42:07.866Z,15.05
2022-11-12T04:44:44.620Z,15.06
2022-11-12T04:47:11.317Z,15.05
2022-11-12T04:49:37.954Z,15.03
2022-11-12T04:52:05.898Z,15.03
2022-11-12T04:54:32.985Z,15.01
2022-11-12T04:57:00.317Z,14.96
2022-11-12T04:59:27.168Z,14.95
2022-11-12T05:01:54.020Z,14.93
2022-11-12T05:04:20.925Z,14.94
2022-11-12T05:06:57.920Z,14.93
2022-11-12T05:09:26.030Z,14.92
2022-11-12T05:11:53.079Z,14.91
2022-11-12T05:14:19.750Z,14.91
2022-11-12T05:16:46.638Z,14.89
2022-11-12T05:19:13.326Z,14.87
2022-11-12T05:21:49.666Z,14.88
2022-11-12T05:24:34.103Z,14.87
2022-11-12T05:27:04.146Z,14.83
2022-11-12T05:29:30.976Z,14.80
2022-11-12T05:31:57.756Z,14.79
2022-11-12T05:34:24.545Z,14.79
2022-11-12T05:36:51.497Z,14.78
2022-11-12T05:39:18.249Z,14.75
2022-11-12T05:42:10.824Z,14.73
2022-11-12T05:44:31.667Z,14.69
2022-11-12T05:46:58.346Z,14.64
2022-11-12T05:49:25.336Z,14.65
2022-11-12T05:51:52.036Z,14.64
2022-11-12T05:54:19.022Z,14.62
2022-11-12T05:56:46.199Z,14.59
2022-11-12T05:59:13.578Z,14.54
2022-11-12T06:01:52.116Z,14.53
2022-11-12T06:04:18.866Z,14.53
2022-11-12T06:06:45.776Z,14.55
2022-11-12T06:09:12.605Z,14.56
2022-11-12T06:11:39.656Z,14.57
2022-11-12T06:14:06.396Z,14.58
2022-11-12T06:16:33.238Z,14.60
2022-11-12T06:19:00.088Z,14.59
2022-11-12T06:21:28.015Z,14.60
2022-11-12T06:23:58.114Z,14.61
2022-11-12T06:26:26.055Z,14.60
2022-11-12T06:28:53.320Z,14.61
2022-11-12T06:31:20.697Z,14.61
2022-11-12T06:33:48.099Z,14.62
2022-11-12T06:36:16.466Z,14.61
2022-11-12T06:38:43.716Z,14.63
2022-11-12T06:41:11.365Z,14.67
2022-11-12T06:43:38.899Z,14.68
2022-11-12T06:46:07.656Z,14.70
2022-11-12T06:48:34.376Z,14.70
2022-11-12T06:51:06.296Z,14.71
2022-11-12T06:53:33.036Z,14.74
2022-11-12T06:56:06.377Z,14.75
2022-11-12T06:58:33.413Z,14.74
2022-11-12T07:01:10.949Z,14.73
2022-11-12T07:03:38.858Z,14.73
2022-11-12T07:06:06.546Z,14.74
2022-11-12T07:08:33.296Z,14.74
2022-11-12T07:11:00.166Z,14.77
2022-11-12T07:13:27.143Z,14.78
2022-11-12T07:15:56.777Z,14.79
2022-11-12T07:18:23.614Z,14.78
2022-11-12T07:20:50.727Z,14.79
2022-11-12T07:23:17.586Z,14.79
2022-11-12T07:25:44.637Z,14.80
2022-11-12T07:28:11.525Z,14.83
2022-11-12T07:30:38.322Z,14.83
2022-11-12T07:33:05.026Z,14.83
2022-11-12T07:35:31.825Z,14.83
2022-11-12T07:37:59.820Z,14.83
2022-11-12T07:40:26.686Z,14.84
2022-11-12T07:42:53.546Z,14.85
2022-11-12T07:45:20.306Z,14.86
2022-11-12T07:47:47.187Z,14.88
2022-11-12T07:50:14.062Z,14.90
2022-11-12T07:52:40.826Z,14.89
2022-11-12T07:55:07.981Z,14.90
2022-11-12T07:57:34.726Z,14.91
2022-11-12T08:00:01.551Z,14.94
2022-11-12T08:02:28.406Z,14.96
2022-11-12T08:04:55.081Z,14.97
2022-11-12T08:07:21.962Z,14.99
2022-11-12T08:09:48.810Z,15.02
2022-11-12T08:12:15.610Z,15.03
2022-11-12T08:14:42.357Z,15.07
2022-11-12T08:17:09.047Z,15.09
2022-11-12T08:19:35.838Z,15.12
2022-11-12T08:22:02.647Z,15.12
2022-11-12T08:24:29.626Z,15.15
2022-11-12T08:26:56.347Z,15.15
2022-11-12T08:29:24.087Z,15.17
2022-11-12T08:31:50.888Z,15.18
2022-11-12T08:34:22.543Z,15.20
2022-11-12T08:36:49.755Z,15.21
2022-11-12T08:39:16.528Z,15.22
2022-11-12T08:41:43.297Z,15.24
2022-11-12T08:44:10.448Z,15.28
2022-11-12T08:46:37.200Z,15.30
2022-11-12T08:49:04.076Z,15.31
2022-11-12T08:51:30.987Z,15.32
2022-11-12T08:53:57.835Z,15.31
2022-11-12T08:56:24.566Z,15.34
2022-11-12T08:58:51.317Z,15.36
2022-11-12T09:01:18.289Z,15.38
2022-11-12T09:03:45.207Z,15.39
2022-11-12T09:06:12.018Z,15.40
2022-11-12T09:08:40.087Z,15.40
2022-11-12T09:11:07.068Z,15.41
2022-11-12T09:13:34.322Z,15.41
2022-11-12T09:16:03.075Z,15.44
2022-11-12T09:18:30.075Z,15.46
2022-11-12T09:21:01.438Z,15.48
2022-11-12T09:23:28.457Z,15.49
2022-11-12T09:25:56.021Z,15.50
2022-11-12T09:28:22.964Z,15.53
2022-11-12T09:30:50.828Z,15.55
2022-11-12T09:33:19.599Z,15.58
2022-11-12T09:35:46.727Z,15.60
2022-11-12T09:38:15.469Z,15.64
2022-11-12T09:40:49.161Z,15.65
2022-11-12T09:43:18.975Z,15.67
2022-11-12T09:46:06.426Z,15.69
2022-11-12T09:48:39.927Z,15.70
2022-11-12T09:51:10.678Z,15.70
2022-11-12T09:53:47.889Z,15.72
2022-11-12T09:56:16.868Z,15.73
2022-11-12T09:58:43.577Z,15.76
2022-11-12T10:01:15.394Z,15.79
2022-11-12T10:03:45.557Z,15.79
2022-11-12T10:06:19.335Z,15.81
2022-11-12T10:08:46.937Z,15.86
2022-11-12T10:11:23.322Z,15.90
2022-11-12T10:14:00.887Z,15.93
2022-11-12T10:16:46.900Z,15.99
2022-11-12T10:19:13.881Z,16.02
2022-11-12T10:21:51.314Z,16.06
2022-11-12T10:24:21.002Z,16.07
2022-11-12T10:26:48.822Z,16.12
2022-11-12T10:29:18.868Z,16.14
2022-11-12T10:31:45.692Z,16.15
2022-11-12T10:34:13.853Z,16.17
2022-11-12T10:36:43.969Z,16.19
2022-11-12T10:39:10.879Z,16.22
2022-11-12T10:41:37.701Z,16.25
2022-11-12T10:44:06.198Z,16.25
2022-11-12T10:46:35.173Z,16.29
2022-11-12T10:49:03.181Z,16.32
2022-11-12T10:51:32.619Z,16.33
2022-11-12T10:53:59.553Z,16.33
2022-11-12T10:56:28.100Z,16.34
2022-11-12T10:59:05.148Z,16.34
2022-11-12T11:01:35.682Z,16.38
2022-11-12T11:04:02.956Z,16.40
2022-11-12T11:06:30.195Z,16.44
2022-11-12T11:09:06.891Z,16.47
2022-11-12T11:11:34.133Z,16.53
2022-11-12T11:14:09.947Z,16.58
2022-11-12T11:16:49.410Z,16.63
2022-11-12T11:19:16.210Z,16.66
2022-11-12T11:21:50.692Z,16.68
2022-11-12T11:24:26.982Z,16.66
2022-11-12T11:26:53.959Z,16.69
2022-11-12T11:29:30.142Z,16.72
2022-11-12T11:32:03.373Z,16.72
2022-11-12T11:34:31.521Z,16.73
2022-11-12T11:37:18.341Z,16.68
2022-11-12T11:39:52.899Z,16.66
2022-11-12T11:42:29.026Z,16.69
2022-11-12T11:45:15.787Z,16.72
2022-11-12T11:48:01.625Z,16.72
2022-11-12T11:50:40.200Z,16.72
2022-11-12T11:53:17.066Z,16.74
2022-11-12T11:55:53.207Z,16.78
2022-11-12T11:58:30.214Z,16.81
2022-11-12T12:01:07.411Z,16.83
2022-11-12T12:03:43.071Z,16.85
2022-11-12T12:06:20.312Z,16.90
2022-11-12T12:08:57.340Z,16.94
2022-11-12T12:11:31.021Z,16.97
2022-11-12T12:14:05.784Z,16.98
2022-11-12T12:16:42.705Z,16.97
2022-11-12T12:19:19.019Z,16.98
2022-11-12T12:21:49.720Z,17.03
2022-11-12T12:24:21.242Z,17.07
2022-11-12T12:26:51.800Z,17.09
2022-11-12T12:29:28.691Z,17.11
2022-11-12T12:32:01.925Z,17.13
2022-11-12T12:34:32.314Z,17.14
2022-11-12T12:37:05.514Z,17.16
2022-11-12T12:39:47.758Z,17.19
2022-11-12T12:42:20.805Z,17.21
2022-11-12T12:45:04.372Z,17.23
2022-11-12T12:47:34.953Z,17.24
2022-11-12T12:50:04.385Z,17.25
2022-11-12T12:52:31.449Z,17.27
2022-11-12T12:54:58.607Z,17.28
2022-11-12T12:57:35.148Z,17.28
2022-11-12T13:00:15.588Z,17.28
2022-11-12T13:02:42.995Z,17.25
2022-11-12T13:05:23.750Z,17.28
2022-11-12T13:07:51.560Z,17.31
2022-11-12T13:10:28.292Z,17.33
2022-11-12T13:13:05.547Z,17.33
2022-11-12T13:15:43.118Z,17.34
2022-11-12T13:18:16.007Z,17.34
2022-11-12T13:21:04.184Z,17.35
2022-11-12T13:24:03.651Z,17.37
2022-11-12T13:26:43.885Z,17.37
2022-11-12T13:29:20.791Z,17.37
2022-11-12T13:31:48.031Z,17.35
2022-11-12T13:34:23.851Z,17.37
2022-11-12T13:37:00.136Z,17.41
2022-11-12T13:39:27.233Z,17.43
2022-11-12T13:42:08.104Z,17.44
2022-11-12T13:44:35.705Z,17.43
2022-11-12T13:47:03.149Z,17.42
2022-11-12T13:49:30.838Z,17.43
2022-11-12T13:51:58.290Z,17.42
2022-11-12T13:54:25.542Z,17.42
2022-11-12T13:56:52.827Z,17.40
2022-11-12T13:59:21.236Z,17.39
2022-11-12T14:01:49.488Z,17.38
2022-11-12T14:04:18.485Z,17.43
2022-11-12T14:06:47.418Z,17.42
2022-11-12T14:09:24.233Z,17.43
2022-11-12T14:11:59.996Z,17.42
2022-11-12T14:14:40.627Z,17.41
2022-11-12T14:17:21.958Z,17.40
2022-11-12T14:19:50.074Z,17.42
2022-11-12T14:22:18.662Z,17.41
2022-11-12T14:24:48.797Z,17.41
2022-11-12T14:27:24.165Z,17.42
2022-11-12T14:30:05.236Z,17.44
2022-11-12T14:32:40.328Z,17.46
2022-11-12T14:35:17.465Z,17.48
2022-11-12T14:37:48.377Z,17.48
2022-11-12T14:40:17.034Z,17.50
2022-11-12T14:42:44.647Z,17.49
2022-11-12T14:45:17.010Z,17.49
2022-11-12T14:47:46.490Z,17.50
2022-11-12T14:50:16.756Z,17.50
2022-11-12T14:52:46.740Z,17.48
2022-11-12T14:55:18.103Z,17.49
2022-11-12T14:57:45.941Z,17.49
2022-11-12T15:00:22.272Z,17.47
2022-11-12T15:02:57.806Z,17.45
2022-11-12T15:05:28.741Z,17.44
2022-11-12T15:07:58.399Z,17.43
2022-11-12T15:10:35.429Z,17.43
2022-11-12T15:13:04.576Z,17.42
2022-11-12T15:15:33.896Z,17.40
2022-11-12T15:18:04.910Z,17.38
2022-11-12T15:20:33.428Z,17.38
2022-11-12T15:23:00.865Z,17.36
2022-11-12T15:25:31.589Z,17.32
2022-11-12T15:28:08.284Z,17.31
2022-11-12T15:30:35.585Z,17.30
2022-11-12T15:33:13.600Z,17.30
2022-11-12T15:35:44.696Z,17.29
2022-11-12T15:38:15.530Z,17.27
2022-11-12T15:40:44.632Z,17.25
2022-11-12T15:43:23.116Z,17.25
2022-11-12T15:45:52.796Z,17.23
2022-11-12T15:48:20.300Z,17.21
2022-11-12T15:50:48.077Z,17.19
2022-11-12T15:53:16.096Z,17.18
2022-11-12T15:55:46.725Z,17.16
2022-11-12T15:58:17.912Z,17.15
2022-11-12T16:00:45.393Z,17.12
2022-11-12T16:03:12.864Z,17.08
2022-11-12T16:05:40.177Z,17.04
2022-11-12T16:08:08.936Z,17.00
2022-11-12T16:10:36.732Z,16.97
2022-11-12T16:13:05.768Z,16.96
2022-11-12T16:15:33.590Z,16.95
2022-11-12T16:18:01.136Z,16.89
2022-11-12T16:20:33.303Z,16.85
2022-11-12T16:23:01.222Z,16.83
2022-11-12T16:25:30.243Z,16.82
2022-11-12T16:27:58.310Z,16.80
2022-11-12T16:30:28.064Z,16.76
2022-11-12T16:32:57.545Z,16.74
2022-11-12T16:35:24.886Z,16.70
2022-11-12T16:37:54.508Z,16.66
2022-11-12T16:40:23.736Z,16.62
2022-11-12T16:42:51.336Z,16.59
2022-11-12T16:45:20.503Z,16.54
2022-11-12T16:47:48.996Z,16.51
2022-11-12T16:50:17.976Z,16.49
2022-11-12T16:52:46.606Z,16.46
2022-11-12T16:55:13.946Z,16.46
2022-11-12T16:57:41.589Z,16.43
2022-11-12T17:00:11.676Z,16.40
2022-11-12T17:02:43.829Z,16.38
2022-11-12T17:05:18.119Z,16.37
2022-11-12T17:07:45.596Z,16.35
2022-11-12T17:10:14.684Z,16.34
2022-11-12T17:12:42.373Z,16.32
2022-11-12T17:15:10.660Z,16.30
2022-11-12T17:17:40.596Z,16.25
2022-11-12T17:20:08.289Z,16.23
2022-11-12T17:22:36.273Z,16.22
2022-11-12T17:25:03.828Z,16.20
2022-11-12T17:27:31.795Z,16.16
2022-11-12T17:29:59.270Z,16.14
2022-11-12T17:32:26.758Z,16.14
2022-11-12T17:34:57.263Z,16.12
2022-11-12T17:37:24.941Z,16.12
2022-11-12T17:39:52.468Z,16.15
2022-11-12T17:42:20.314Z,16.12
2022-11-12T17:44:47.844Z,16.10
2022-11-12T17:47:15.502Z,16.07
2022-11-12T17:49:43.299Z,16.06
2022-11-12T17:52:10.644Z,16.03
2022-11-12T17:54:37.908Z,16.00
2022-11-12T17:57:05.291Z,15.95
2022-11-12T17:59:34.027Z,15.92
2022-11-12T18:02:01.875Z,15.90
2022-11-12T18:04:31.064Z,15.89
2022-11-12T18:06:59.018Z,15.88
2022-11-12T18:09:26.106Z,15.85
2022-11-12T18:11:56.922Z,15.82
2022-11-12T18:14:26.485Z,15.81
2022-11-12T18:16:54.122Z,15.80
2022-11-12T18:19:21.279Z,15.79
2022-11-12T18:21:48.454Z,15.78
2022-11-12T18:24:16.346Z,15.76
2022-11-12T18:26:44.848Z,15.76
2022-11-12T18:29:13.252Z,15.77
2022-11-12T18:31:40.969Z,15.76
2022-11-12T18:34:11.481Z,15.76
2022-11-12T18:36:43.081Z,15.75
2022-11-12T18:39:10.539Z,15.77
2022-11-12T18:41:37.848Z,15.77
2022-11-12T18:44:05.198Z,15.78
2022-11-12T18:46:32.754Z,15.76
2022-11-12T18:49:00.085Z,15.75
2022-11-12T18:51:27.676Z,15.75
2022-11-12T18:53:55.022Z,15.75
2022-11-12T18:56:22.651Z,15.73
2022-11-12T18:58:50.123Z,15.74
2022-11-12T19:01:21.145Z,15.71
2022-11-12T19:03:49.078Z,15.69
2022-11-12T19:06:17.403Z,15.67
2022-11-12T19:08:44.662Z,15.66
2022-11-12T19:11:13.039Z,15.64
2022-11-12T19:13:43.814Z,15.60
2022-11-12T19:16:14.722Z,15.61
2022-11-12T19:18:42.764Z,15.58
2022-11-12T19:21:12.614Z,15.56
2022-11-12T19:23:40.264Z,15.55
2022-11-12T19:26:08.573Z,15.54
2022-11-12T19:28:36.470Z,15.54
2022-11-12T19:31:04.753Z,15.53
2022-11-12T19:33:33.149Z,15.54
2022-11-12T19:36:06.127Z,15.53
2022-11-12T19:38:34.422Z,15.51
2022-11-12T19:41:05.553Z,15.52
2022-11-12T19:43:34.033Z,15.50
2022-11-12T19:46:01.525Z,15.49
2022-11-12T19:48:29.108Z,15.47
2022-11-12T19:51:01.179Z,15.47
2022-11-12T19:53:31.091Z,15.49
2022-11-12T19:56:02.243Z,15.47
2022-11-12T19:58:30.018Z,15.47
2022-11-12T20:01:03.384Z,15.49
2022-11-12T20:03:31.006Z,15.48
2022-11-12T20:06:02.422Z,15.49
2022-11-12T20:08:30.174Z,15.49
2022-11-12T20:10:57.698Z,15.48
2022-11-12T20:13:24.772Z,15.47
2022-11-12T20:15:52.249Z,15.47
2022-11-12T20:18:19.297Z,15.47
2022-11-12T20:20:49.073Z,15.47
2022-11-12T20:23:16.621Z,15.47
2022-11-12T20:25:43.833Z,15.46
2022-11-12T20:28:12.604Z,15.46
2022-11-12T20:30:39.672Z,15.45
2022-11-12T20:33:07.029Z,15.46
2022-11-12T20:35:35.215Z,15.44
2022-11-12T20:38:02.824Z,15.46
2022-11-12T20:40:30.980Z,15.44
2022-11-12T20:42:58.267Z,15.43
2022-11-12T20:45:25.684Z,15.41
2022-11-12T20:47:52.902Z,15.41
2022-11-12T20:50:19.973Z,15.39
2022-11-12T20:52:47.101Z,15.38
2022-11-12T20:55:14.140Z,15.37
2022-11-12T20:57:41.066Z,15.36
2022-11-12T21:00:13.307Z,15.33
2022-11-12T21:02:40.916Z,15.30
2022-11-12T21:05:08.007Z,15.26
2022-11-12T21:07:35.112Z,15.24
2022-11-12T21:10:02.454Z,15.23
2022-11-12T21:12:32.208Z,15.22
2022-11-12T21:14:59.418Z,15.20
2022-11-12T21:17:26.529Z,15.18
2022-11-12T21:19:53.747Z,15.18
2022-11-12T21:22:20.994Z,15.16
2022-11-12T21:24:47.913Z,15.14
2022-11-12T21:27:14.840Z,15.13
2022-11-12T21:29:41.886Z,15.09
2022-11-12T21:32:09.399Z,15.09
2022-11-12T21:34:36.454Z,15.05
2022-11-12T21:37:03.684Z,15.02
2022-11-12T21:39:30.835Z,14.97
2022-11-12T21:41:58.062Z,14.95
2022-11-12T21:44:25.153Z,14.94
2022-11-12T21:46:52.097Z,14.93
2022-11-12T21:49:19.413Z,14.91
2022-11-12T21:51:46.625Z,14.88
2022-11-12T21:54:14.394Z,14.88
2022-11-12T21:56:42.453Z,14.87
2022-11-12T21:59:09.710Z,14.87
2022-11-12T22:01:37.780Z,14.83
2022-11-12T22:04:06.254Z,14.83
2022-11-12T22:06:35.825Z,14.82
2022-11-12T22:09:02.946Z,14.81
2022-11-12T22:11:29.979Z,14.79
2022-11-12T22:13:57.084Z,14.76
2022-11-12T22:16:25.475Z,14.75
2022-11-12T22:18:53.788Z,14.75
2022-11-12T22:21:22.515Z,14.74
2022-11-12T22:23:49.532Z,14.73
2022-11-12T22:26:17.724Z,14.71
2022-11-12T22:28:45.174Z,14.70
2022-11-12T22:31:13.680Z,14.70
2022-11-12T22:33:41.173Z,14.70
2022-11-12T22:36:12.616Z,14.69
2022-11-12T22:38:41.949Z,14.68
2022-11-12T22:41:10.281Z,14.69
2022-11-12T22:43:38.203Z,14.69
2022-11-12T22:46:10.623Z,14.69
2022-11-12T22:48:37.868Z,14.69
2022-11-12T22:51:06.456Z,14.69
2022-11-12T22:53:33.427Z,14.67
2022-11-12T22:56:03.893Z,14.66
2022-11-12T22:58:31.034Z,14.69
2022-11-12T23:00:58.127Z,14.69
2022-11-12T23:03:25.107Z,14.69
2022-11-12T23:05:57.934Z,14.68
2022-11-12T23:08:25.625Z,14.67
2022-11-12T23:10:52.629Z,14.65
2022-11-12T23:13:19.716Z,14.66
2022-11-12T23:15:46.885Z,14.68
2022-11-12T23:18:13.902Z,14.68
2022-11-12T23:20:40.767Z,14.65
2022-11-12T23:23:07.653Z,14.66
2022-11-12T23:25:34.637Z,14.66
2022-11-12T23:28:01.612Z,14.67
2022-11-12T23:30:28.440Z,14.68
2022-11-12T23:32:55.315Z,14.68
2022-11-12T23:35:22.035Z,14.69
2022-11-12T23:37:48.912Z,14.65
2022-11-12T23:40:16.104Z,14.67
2022-11-12T23:42:42.994Z,14.68
2022-11-12T23:45:10.361Z,14.67
2022-11-12T23:47:37.137Z,14.66
2022-11-12T23:50:04.313Z,14.68
2022-11-12T23:52:31.179Z,14.67
2022-11-12T23:54:58.034Z,14.66
2022-11-12T23:57:24.743Z,14.70
2022-11-12T23:59:51.492Z,14.70
